createdAt,value
2018-09-06T00:00:09.995Z,99.99
2018-09-06T00:01:10.004Z,99.99
2018-09-06T00:02:10.038Z,99.99
2018-09-06T00:03:09.965Z,99.99
2018-09-06T00:04:09.951Z,99.99
2018-09-06T00:05:09.944Z,99.99
2018-09-06T00:06:09.930Z,99.99
2018-09-06T00:07:09.655Z,99.99
2018-09-06T00:08:09.639Z,99.99
2018-09-06T00:09:09.892Z,99.99
2018-09-06T00:10:09.882Z,99.99
2018-09-06T00:11:09.870Z,99.99
2018-09-06T00:12:09.864Z,99.99
2018-09-06T00:13:09.847Z,99.99
2018-09-06T00:14:09.570Z,99.99
2018-09-06T00:15:09.561Z,99.99
2018-09-06T00:16:09.551Z,99.99
2018-09-06T00:17:09.809Z,99.99
2018-09-06T00:18:09.525Z,99.99
2018-09-06T00:19:09.515Z,99.99
2018-09-06T00:20:09.769Z,99.99
2018-09-06T00:21:09.492Z,99.99
2018-09-06T00:22:09.479Z,99.99
2018-09-06T00:23:09.735Z,99.99
2018-09-06T00:24:09.722Z,99.99
2018-09-06T00:25:09.446Z,99.99
2018-09-06T00:26:09.903Z,99.99
2018-09-06T00:27:09.685Z,99.99
2018-09-06T00:28:09.683Z,99.82
2018-09-06T00:29:09.398Z,99.82
2018-09-06T00:30:09.652Z,99.99
2018-09-06T00:31:09.375Z,99.99
2018-09-06T00:32:09.629Z,99.99
2018-09-06T00:33:09.617Z,99.82
2018-09-06T00:34:09.613Z,99.99
2018-09-06T00:35:09.591Z,99.99
2018-09-06T00:36:09.585Z,99.99
2018-09-06T00:37:09.575Z,99.99
2018-09-06T00:38:09.297Z,99.99
2018-09-06T00:39:09.290Z,99.99
2018-09-06T00:40:09.268Z,99.99
2018-09-06T00:41:09.527Z,99.99
2018-09-06T00:42:09.253Z,99.99
2018-09-06T00:43:09.504Z,99.82
2018-09-06T00:44:09.501Z,99.99
2018-09-06T00:45:09.478Z,99.99
2018-09-06T00:46:09.465Z,99.99
2018-09-06T00:47:09.454Z,99.99
2018-09-06T00:48:09.449Z,99.99
2018-09-06T00:49:09.164Z,99.99
2018-09-06T00:50:09.417Z,99.99
2018-09-06T00:51:09.145Z,99.99
2018-09-06T00:52:09.392Z,99.91
2018-09-06T00:53:09.123Z,99.53
2018-09-06T00:54:09.372Z,99.91
2018-09-06T00:55:09.355Z,99.99
2018-09-06T00:56:09.081Z,99.99
2018-09-06T00:57:09.069Z,99.99
2018-09-06T00:58:09.057Z,99.91
2018-09-06T00:59:09.311Z,99.63
2018-09-06T01:00:09.033Z,99.91
2018-09-06T01:01:09.288Z,99.53
2018-09-06T01:02:09.016Z,99.73
2018-09-06T01:03:09.019Z,99.91
2018-09-06T01:04:09.256Z,99.73
2018-09-06T01:05:08.977Z,99.99
2018-09-06T01:06:09.235Z,99.53
2018-09-06T01:07:09.216Z,99.15
2018-09-06T01:08:09.205Z,98.43
2018-09-06T01:09:09.192Z,98.48
2018-09-06T01:10:08.919Z,97.66
2018-09-06T01:11:09.168Z,97.76
2018-09-06T01:12:09.164Z,97.66
2018-09-06T01:13:08.882Z,96.61
2018-09-06T01:14:09.129Z,96.32
2018-09-06T01:15:09.119Z,95.6
2018-09-06T01:16:09.104Z,96.13
2018-09-06T01:17:09.099Z,95.07
2018-09-06T01:18:09.084Z,94.5
2018-09-06T01:19:09.072Z,93.73
2018-09-06T01:20:08.802Z,93.35
2018-09-06T01:21:08.784Z,91.34
2018-09-06T01:22:09.035Z,90.47
2018-09-06T01:23:08.764Z,90.67
2018-09-06T01:24:08.747Z,91.24
2018-09-06T01:25:09.003Z,89.71
2018-09-06T01:26:08.993Z,90.67
2018-09-06T01:27:08.974Z,90.67
2018-09-06T01:28:08.702Z,90.09
2018-09-06T01:29:08.952Z,89.61
2018-09-06T01:30:08.950Z,89.04
2018-09-06T01:31:08.928Z,89.9
2018-09-06T01:32:08.653Z,91.05
2018-09-06T01:33:08.642Z,91.14
2018-09-06T01:34:08.894Z,91.53
2018-09-06T01:35:08.878Z,91.43
2018-09-06T01:36:08.921Z,91.63
2018-09-06T01:37:08.595Z,91.43
2018-09-06T01:38:08.578Z,91.05
2018-09-06T01:39:08.568Z,90.86
2018-09-06T01:40:08.826Z,91.63
2018-09-06T01:41:08.812Z,92.3
2018-09-06T01:42:08.530Z,92.58
2018-09-06T01:43:08.523Z,93.54
2018-09-06T01:44:08.780Z,94.12
2018-09-06T01:45:08.500Z,94.5
2018-09-06T01:46:08.746Z,94.69
2018-09-06T01:47:08.741Z,94.12
2018-09-06T01:48:08.732Z,94.21
2018-09-06T01:49:08.713Z,93.26
2018-09-06T01:50:08.701Z,92.68
2018-09-06T01:51:08.425Z,91.82
2018-09-06T01:52:08.416Z,92.58
2018-09-06T01:53:08.667Z,93.35
2018-09-06T01:54:08.387Z,93.63
2018-09-06T01:55:08.636Z,94.5
2018-09-06T01:56:08.630Z,94.5
2018-09-06T01:57:08.352Z,95.07
2018-09-06T01:58:08.605Z,94.98
2018-09-06T01:59:08.594Z,95.36
2018-09-06T02:00:08.316Z,95.26
2018-09-06T02:01:08.570Z,95.07
2018-09-06T02:02:08.562Z,95.46
2018-09-06T02:03:08.540Z,94.79
2018-09-06T02:04:08.266Z,94.31
2018-09-06T02:05:08.261Z,94.98
2018-09-06T02:06:08.242Z,94.98
2018-09-06T02:07:08.501Z,95.56
2018-09-06T02:08:08.219Z,94.98
2018-09-06T02:09:08.472Z,95.46
2018-09-06T02:10:08.193Z,94.59
2018-09-06T02:11:08.453Z,94.02
2018-09-06T02:12:08.438Z,93.26
2018-09-06T02:13:08.160Z,93.44
2018-09-06T02:14:08.409Z,93.93
2018-09-06T02:15:08.399Z,93.83
2018-09-06T02:16:08.382Z,94.12
2018-09-06T02:17:08.376Z,94.21
2018-09-06T02:18:08.095Z,94.89
2018-09-06T02:19:08.347Z,95.07
2018-09-06T02:20:08.337Z,94.21
2018-09-06T02:21:08.326Z,94.02
2018-09-06T02:22:08.313Z,94.21
2018-09-06T02:23:08.348Z,94.59
2018-09-06T02:24:08.026Z,95.07
2018-09-06T02:25:08.281Z,94.89
2018-09-06T02:26:08.465Z,94.89
2018-09-06T02:27:07.991Z,95.07
2018-09-06T02:28:07.975Z,95.26
2018-09-06T02:29:08.224Z,95.94
2018-09-06T02:30:08.222Z,95.94
2018-09-06T02:31:08.200Z,96.7
2018-09-06T02:32:08.199Z,96.61
2018-09-06T02:33:08.181Z,96.13
2018-09-06T02:34:08.168Z,96.13
2018-09-06T02:35:08.158Z,95.26
2018-09-06T02:36:08.140Z,94.59
2018-09-06T02:37:08.129Z,94.21
2018-09-06T02:38:08.121Z,93.93
2018-09-06T02:39:07.848Z,93.73
2018-09-06T02:40:08.096Z,92.97
2018-09-06T02:41:08.097Z,93.16
2018-09-06T02:42:07.806Z,93.06
2018-09-06T02:43:08.061Z,93.63
2018-09-06T02:44:07.781Z,93.83
2018-09-06T02:45:07.775Z,93.26
2018-09-06T02:46:08.024Z,92.49
2018-09-06T02:47:08.012Z,92.77
2018-09-06T02:48:08.012Z,93.06
2018-09-06T02:49:07.986Z,92.39
2018-09-06T02:50:07.714Z,92.2
2018-09-06T02:51:07.695Z,91.63
2018-09-06T02:52:07.948Z,92.01
2018-09-06T02:53:07.954Z,92.3
2018-09-06T02:54:07.659Z,92.2
2018-09-06T02:55:07.916Z,92.49
2018-09-06T02:56:07.906Z,92.63
2018-09-06T02:57:07.887Z,92.68
2018-09-06T02:58:07.874Z,91.05
2018-09-06T02:59:07.862Z,90.86
2018-09-06T03:00:07.853Z,90.86
2018-09-06T03:01:07.844Z,91.43
2018-09-06T03:02:07.823Z,91.14
2018-09-06T03:03:07.553Z,91.34
2018-09-06T03:04:07.814Z,90.67
2018-09-06T03:05:07.798Z,90.19
2018-09-06T03:06:07.775Z,89.71
2018-09-06T03:07:07.503Z,89.76
2018-09-06T03:08:07.489Z,90
2018-09-06T03:09:07.482Z,89.76
2018-09-06T03:10:07.732Z,89.47
2018-09-06T03:11:07.730Z,87.5
2018-09-06T03:12:07.438Z,86.6
2018-09-06T03:13:07.429Z,88.03
2018-09-06T03:14:07.419Z,87.46
2018-09-06T03:15:07.417Z,87.17
2018-09-06T03:16:07.663Z,86.98
2018-09-06T03:17:07.645Z,87.17
2018-09-06T03:18:07.365Z,87.46
2018-09-06T03:19:07.623Z,86.88
2018-09-06T03:20:07.346Z,86.79
2018-09-06T03:21:07.329Z,85.45
2018-09-06T03:22:07.582Z,86.69
2018-09-06T03:23:07.574Z,86.79
2018-09-06T03:24:07.292Z,87.17
2018-09-06T03:25:07.551Z,87.65
2018-09-06T03:26:07.319Z,86.6
2018-09-06T03:27:07.256Z,87.55
2018-09-06T03:28:07.507Z,88.99
2018-09-06T03:29:07.509Z,88.61
2018-09-06T03:30:07.487Z,89.37
2018-09-06T03:31:07.470Z,89.71
2018-09-06T03:32:07.471Z,89.51
2018-09-06T03:33:07.455Z,89.37
2018-09-06T03:34:07.434Z,90.28
2018-09-06T03:35:07.428Z,90.53
2018-09-06T03:36:07.276Z,91.77
2018-09-06T03:37:07.399Z,91.39
2018-09-06T03:38:07.125Z,91.39
2018-09-06T03:39:07.372Z,91.77
2018-09-06T03:40:07.362Z,91.29
2018-09-06T03:41:07.351Z,90.62
2018-09-06T03:42:07.339Z,90.72
2018-09-06T03:43:07.326Z,89.86
2018-09-06T03:44:07.099Z,89.47
2018-09-06T03:45:07.310Z,87.94
2018-09-06T03:46:07.023Z,86.69
2018-09-06T03:47:07.271Z,85.83
2018-09-06T03:48:07.270Z,85.35
2018-09-06T03:49:07.246Z,84.68
2018-09-06T03:50:07.234Z,84.3
2018-09-06T03:51:07.232Z,83.72
2018-09-06T03:52:07.216Z,83.92
2018-09-06T03:53:07.197Z,83.63
2018-09-06T03:54:07.187Z,83.72
2018-09-06T03:55:07.176Z,83.15
2018-09-06T03:56:06.896Z,83.05
2018-09-06T03:57:06.884Z,82.38
2018-09-06T03:58:07.146Z,82.29
2018-09-06T03:59:07.132Z,80.85
2018-09-06T04:00:06.847Z,80.85
2018-09-06T04:01:07.101Z,81.62
2018-09-06T04:02:07.085Z,81.23
2018-09-06T04:03:07.076Z,81.04
2018-09-06T04:04:06.798Z,80.66
2018-09-06T04:05:07.049Z,81.04
2018-09-06T04:06:07.033Z,80.85
2018-09-06T04:07:07.023Z,80.85
2018-09-06T04:08:06.752Z,80.08
2018-09-06T04:09:06.997Z,80.66
2018-09-06T04:10:06.728Z,80.66
2018-09-06T04:11:06.710Z,80.37
2018-09-06T04:12:06.961Z,80.37
2018-09-06T04:13:06.947Z,81.2
2018-09-06T04:14:06.675Z,81.04
2018-09-06T04:15:06.925Z,81.67
2018-09-06T04:16:06.911Z,80.9
2018-09-06T04:17:06.632Z,81.1
2018-09-06T04:18:06.626Z,81.29
2018-09-06T04:19:06.606Z,80.9
2018-09-06T04:20:06.862Z,80.71
2018-09-06T04:21:06.858Z,80.56
2018-09-06T04:22:06.577Z,80.52
2018-09-06T04:23:06.827Z,80.37
2018-09-06T04:24:06.854Z,80.33
2018-09-06T04:25:06.806Z,80.52
2018-09-06T04:26:06.986Z,80.52
2018-09-06T04:27:06.785Z,79.75
2018-09-06T04:28:06.764Z,78.32
2018-09-06T04:29:06.770Z,78.17
2018-09-06T04:30:06.738Z,77.69
2018-09-06T04:31:06.455Z,77.4
2018-09-06T04:32:06.712Z,78.93
2018-09-06T04:33:06.704Z,78.42
2018-09-06T04:34:06.682Z,78.89
2018-09-06T04:35:06.677Z,79.37
2018-09-06T04:36:06.732Z,78.51
2018-09-06T04:37:06.380Z,78.7
2018-09-06T04:38:06.631Z,78.7
2018-09-06T04:39:06.621Z,78.42
2018-09-06T04:40:06.618Z,78.22
2018-09-06T04:41:06.594Z,78.74
2018-09-06T04:42:06.586Z,78.7
2018-09-06T04:43:06.574Z,77.88
2018-09-06T04:44:06.554Z,76.6
2018-09-06T04:45:06.286Z,77.55
2018-09-06T04:46:06.536Z,77.97
2018-09-06T04:47:06.254Z,78.27
2018-09-06T04:48:06.505Z,78.84
2018-09-06T04:49:06.496Z,78.93
2018-09-06T04:50:06.492Z,78.07
2018-09-06T04:51:06.206Z,78.07
2018-09-06T04:52:06.462Z,78.07
2018-09-06T04:53:06.445Z,77.84
2018-09-06T04:54:06.429Z,77.88
2018-09-06T04:55:06.425Z,78.32
2018-09-06T04:56:06.141Z,78.13
2018-09-06T04:57:06.131Z,77.46
2018-09-06T04:58:06.383Z,77.78
2018-09-06T04:59:06.103Z,76.89
2018-09-06T05:00:06.092Z,76.82
2018-09-06T05:01:06.344Z,77.88
2018-09-06T05:02:06.331Z,77.88
2018-09-06T05:03:06.364Z,78.55
2018-09-06T05:04:06.052Z,79.03
2018-09-06T05:05:06.030Z,78.17
2018-09-06T05:06:06.015Z,78.27
2018-09-06T05:07:06.265Z,77.97
2018-09-06T05:08:05.991Z,78.45
2018-09-06T05:09:06.245Z,78.17
2018-09-06T05:10:05.967Z,78.74
2018-09-06T05:11:06.217Z,78.17
2018-09-06T05:12:06.210Z,77.78
2018-09-06T05:13:05.930Z,78.17
2018-09-06T05:14:06.189Z,77.78
2018-09-06T05:15:06.165Z,77.88
2018-09-06T05:16:05.916Z,77.69
2018-09-06T05:17:05.875Z,77.78
2018-09-06T05:18:05.864Z,77.88
2018-09-06T05:19:06.128Z,76.73
2018-09-06T05:20:06.103Z,76.73
2018-09-06T05:21:06.089Z,76.35
2018-09-06T05:22:06.217Z,76.15
2018-09-06T05:23:06.069Z,76.64
2018-09-06T05:24:05.793Z,76.25
2018-09-06T05:25:05.778Z,76.73
2018-09-06T05:26:06.027Z,76.92
2018-09-06T05:27:06.015Z,76.82
2018-09-06T05:28:06.007Z,76.82
2018-09-06T05:29:05.988Z,77.31
2018-09-06T05:30:05.726Z,77.78
2018-09-06T05:31:05.966Z,77.78
2018-09-06T05:32:05.688Z,77.97
2018-09-06T05:33:05.942Z,77.78
2018-09-06T05:34:05.925Z,77.5
2018-09-06T05:35:05.689Z,77.69
2018-09-06T05:36:06.038Z,76.73
2018-09-06T05:37:05.893Z,76.82
2018-09-06T05:38:05.888Z,77.4
2018-09-06T05:39:05.606Z,77.02
2018-09-06T05:40:05.854Z,77.02
2018-09-06T05:41:05.843Z,76.54
2018-09-06T05:42:05.564Z,76.54
2018-09-06T05:43:05.813Z,76.35
2018-09-06T05:44:05.803Z,75.87
2018-09-06T05:45:05.797Z,76.44
2018-09-06T05:46:05.509Z,76.06
2018-09-06T05:47:05.497Z,76.1
2018-09-06T05:48:05.752Z,76.06
2018-09-06T05:49:05.472Z,76.29
2018-09-06T05:50:05.734Z,76.48
2018-09-06T05:51:05.447Z,77.15
2018-09-06T05:52:05.436Z,76.96
2018-09-06T05:53:05.695Z,76.96
2018-09-06T05:54:05.675Z,78.2
2018-09-06T05:55:05.668Z,77.34
2018-09-06T05:56:05.653Z,77.63
2018-09-06T05:57:05.646Z,77.92
2018-09-06T05:58:05.762Z,78.2
2018-09-06T05:59:05.351Z,78.49
2018-09-06T06:00:05.797Z,78.59
2018-09-06T06:01:05.592Z,79.36
2018-09-06T06:02:05.313Z,79.45
2018-09-06T06:03:05.574Z,80.41
2018-09-06T06:04:05.555Z,80.03
2018-09-06T06:05:05.539Z,80.74
2018-09-06T06:06:05.263Z,80.64
2018-09-06T06:07:05.249Z,81.02
2018-09-06T06:08:05.239Z,81.02
2018-09-06T06:09:05.489Z,80.35
2018-09-06T06:10:05.219Z,80.16
2018-09-06T06:11:05.467Z,81.12
2018-09-06T06:12:05.191Z,80.64
2018-09-06T06:13:05.447Z,81.6
2018-09-06T06:14:05.162Z,81.22
2018-09-06T06:15:05.150Z,81.7
2018-09-06T06:16:05.169Z,81.79
2018-09-06T06:17:05.479Z,81.84
2018-09-06T06:18:05.381Z,82.41
2018-09-06T06:19:05.370Z,82.41
2018-09-06T06:20:05.561Z,83.27
2018-09-06T06:21:05.343Z,83.94
2018-09-06T06:22:05.071Z,85.28
2018-09-06T06:23:05.062Z,86.15
2018-09-06T06:24:05.055Z,84.81
2018-09-06T06:25:05.301Z,86.48
2018-09-06T06:26:05.915Z,85.91
2018-09-06T06:27:05.275Z,85.91
2018-09-06T06:28:05.001Z,86.58
2018-09-06T06:29:05.251Z,86.77
2018-09-06T06:30:05.242Z,85.62
2018-09-06T06:31:05.229Z,88.4
2018-09-06T06:32:04.967Z,89.4
2018-09-06T06:33:05.206Z,89.12
2018-09-06T06:34:05.301Z,90.75
2018-09-06T06:35:05.186Z,91.23
2018-09-06T06:36:04.910Z,90.17
2018-09-06T06:37:04.901Z,91.33
2018-09-06T06:38:05.155Z,92.86
2018-09-06T06:39:05.140Z,92.96
2018-09-06T06:40:05.133Z,94.01
2018-09-06T06:41:05.132Z,93.73
2018-09-06T06:42:05.112Z,93.63
2018-09-06T06:43:04.832Z,92.38
2018-09-06T06:44:05.085Z,92
2018-09-06T06:45:05.073Z,90.46
2018-09-06T06:46:05.066Z,91.56
2018-09-06T06:47:04.789Z,89.31
2018-09-06T06:48:04.780Z,89.45
2018-09-06T06:49:04.771Z,88.93
2018-09-06T06:50:05.023Z,85.03
2018-09-06T06:51:04.772Z,84.36
2018-09-06T06:52:05.000Z,87.34
2018-09-06T06:53:04.995Z,85.61
2018-09-06T06:54:04.715Z,86.47
2018-09-06T06:55:04.962Z,84.94
2018-09-06T06:56:04.689Z,86.76
2018-09-06T06:57:04.950Z,85.8
2018-09-06T06:58:04.948Z,84.7
2018-09-06T06:59:04.920Z,82.24
2018-09-06T07:00:04.922Z,79.07
2018-09-06T07:01:05.180Z,72.44
2018-09-06T07:02:04.888Z,72.25
2018-09-06T07:03:04.875Z,68.76
2018-09-06T07:04:04.677Z,69.91
2018-09-06T07:05:04.857Z,66.64
2018-09-06T07:06:04.580Z,67.9
2018-09-06T07:07:04.697Z,63.28
2018-09-06T07:08:04.830Z,62.32
2018-09-06T07:09:04.549Z,60.02
2018-09-06T07:10:04.803Z,62.32
2018-09-06T07:11:04.529Z,62.13
2018-09-06T07:12:04.788Z,66.07
2018-09-06T07:13:04.508Z,65.11
2018-09-06T07:14:04.806Z,62.99
2018-09-06T07:15:04.486Z,63.09
2018-09-06T07:16:04.744Z,61.27
2018-09-06T07:17:04.727Z,59.83
2018-09-06T07:18:04.767Z,59.73
2018-09-06T07:19:04.706Z,59.34
2018-09-06T07:20:04.702Z,58.1
2018-09-06T07:21:04.685Z,59.16
2018-09-06T07:22:04.725Z,56.66
2018-09-06T07:23:04.399Z,57.71
2018-09-06T07:24:04.656Z,59.44
2018-09-06T07:25:04.699Z,58.87
2018-09-06T07:26:04.368Z,60.11
2018-09-06T07:27:04.628Z,59.95
2018-09-06T07:28:04.346Z,60.11
2018-09-06T07:29:04.601Z,60.02
2018-09-06T07:30:04.323Z,59.66
2018-09-06T07:31:04.318Z,58.7
2018-09-06T07:32:04.355Z,61.2
2018-09-06T07:33:04.556Z,60.14
2018-09-06T07:34:04.548Z,60.05
2018-09-06T07:35:04.302Z,59.38
2018-09-06T07:36:04.528Z,59.09
2018-09-06T07:37:04.523Z,57.07
2018-09-06T07:38:04.514Z,57.75
2018-09-06T07:39:04.494Z,58.03
2018-09-06T07:40:04.489Z,59.19
2018-09-06T07:41:04.475Z,61.2
2018-09-06T07:42:04.203Z,62.35
2018-09-06T07:43:04.463Z,62.64
2018-09-06T07:44:04.456Z,63.22
2018-09-06T07:45:04.442Z,63.22
2018-09-06T07:46:04.163Z,63.99
2018-09-06T07:47:04.148Z,62.64
2018-09-06T07:48:04.142Z,62.26
2018-09-06T07:49:04.393Z,63.89
2018-09-06T07:50:04.513Z,63.51
2018-09-06T07:51:04.380Z,62.26
2018-09-06T07:52:04.402Z,56.49
2018-09-06T07:53:04.399Z,56.68
2018-09-06T07:54:04.077Z,58.03
2018-09-06T07:55:04.337Z,58.8
2018-09-06T07:56:04.061Z,58.22
2018-09-06T07:57:04.309Z,59.19
2018-09-06T07:58:04.326Z,60.27
2018-09-06T07:59:04.030Z,58.92
2018-09-06T08:00:04.293Z,61.43
2018-09-06T08:01:04.008Z,60.91
2018-09-06T08:02:04.001Z,59.99
2018-09-06T08:03:03.989Z,61.61
2018-09-06T08:04:04.286Z,60.56
2018-09-06T08:05:03.975Z,61.33
2018-09-06T08:06:03.960Z,60.37
2018-09-06T08:07:04.211Z,61.04
2018-09-06T08:08:04.203Z,60.85
2018-09-06T08:09:04.193Z,60.75
2018-09-06T08:10:03.921Z,64.4
2018-09-06T08:11:03.909Z,64.02
2018-09-06T08:12:04.269Z,64.22
2018-09-06T08:13:04.154Z,63.06
2018-09-06T08:14:03.881Z,64.22
2018-09-06T08:15:03.868Z,64.31
2018-09-06T08:16:03.857Z,64.12
2018-09-06T08:17:03.849Z,64.4
2018-09-06T08:18:04.105Z,68.73
2018-09-06T08:19:04.094Z,69.89
2018-09-06T08:20:03.815Z,68.73
2018-09-06T08:21:04.071Z,67.38
2018-09-06T08:22:04.063Z,67.86
2018-09-06T08:23:04.064Z,64.22
2018-09-06T08:24:04.041Z,63.25
2018-09-06T08:25:04.035Z,65.84
2018-09-06T08:26:03.765Z,66.33
2018-09-06T08:27:03.821Z,66.91
2018-09-06T08:28:04.002Z,66.04
2018-09-06T08:29:03.998Z,65.84
2018-09-06T08:30:03.718Z,65.56
2018-09-06T08:31:04.474Z,64.89
2018-09-06T08:32:03.960Z,63.35
2018-09-06T08:33:03.691Z,63.15
2018-09-06T08:34:03.944Z,62.48
2018-09-06T08:35:03.937Z,62.58
2018-09-06T08:36:03.926Z,63.06
2018-09-06T08:37:04.108Z,64.4
2018-09-06T08:38:03.898Z,65.17
2018-09-06T08:39:03.624Z,66.33
2018-09-06T08:40:03.882Z,64.98
2018-09-06T08:41:03.867Z,66.61
2018-09-06T08:42:03.597Z,66.91
2018-09-06T08:43:03.847Z,65.08
2018-09-06T08:44:03.841Z,62.19
2018-09-06T08:45:03.565Z,60.75
2018-09-06T08:46:03.561Z,61.71
2018-09-06T08:47:03.572Z,61.52
2018-09-06T08:48:03.533Z,60.14
2018-09-06T08:49:03.789Z,59.66
2018-09-06T08:50:03.518Z,59.57
2018-09-06T08:51:03.767Z,58.22
2018-09-06T08:52:03.846Z,57.84
2018-09-06T08:53:03.530Z,57.45
2018-09-06T08:54:03.475Z,56.4
2018-09-06T08:55:03.463Z,54.57
2018-09-06T08:56:03.715Z,53.7
2018-09-06T08:57:03.440Z,52.55
2018-09-06T08:58:03.695Z,51.4
2018-09-06T08:59:03.684Z,51.21
2018-09-06T09:00:03.673Z,50.15
2018-09-06T09:01:03.677Z,48.9
2018-09-06T09:02:03.428Z,47.94
2018-09-06T09:03:03.469Z,45.73
2018-09-06T09:04:03.624Z,45.73
2018-09-06T09:05:03.357Z,45.15
2018-09-06T09:06:03.763Z,43.23
2018-09-06T09:07:03.332Z,42.94
2018-09-06T09:08:03.585Z,42.66
2018-09-06T09:09:03.576Z,42.47
2018-09-06T09:10:03.572Z,41.5
2018-09-06T09:11:03.558Z,40.25
2018-09-06T09:12:03.547Z,38.24
2018-09-06T09:13:03.421Z,37.85
2018-09-06T09:14:03.262Z,37.47
2018-09-06T09:15:03.247Z,37.37
2018-09-06T09:16:03.250Z,35.64
2018-09-06T09:17:03.493Z,34.3
2018-09-06T09:18:03.488Z,33.15
2018-09-06T09:19:03.203Z,32.67
2018-09-06T09:20:03.196Z,31.13
2018-09-06T09:21:03.461Z,28.42
2018-09-06T09:22:03.687Z,28.52
2018-09-06T09:23:03.158Z,28.23
2018-09-06T09:24:03.151Z,25.16
2018-09-06T09:25:03.404Z,24.77
2018-09-06T09:26:03.410Z,23.72
2018-09-06T09:27:03.383Z,23.72
2018-09-06T09:28:03.209Z,23.33
2018-09-06T09:29:03.358Z,24.39
2018-09-06T09:30:03.352Z,24.2
2018-09-06T09:31:03.074Z,23.82
2018-09-06T09:32:03.071Z,22.86
2018-09-06T09:33:03.054Z,22.28
2018-09-06T09:34:03.043Z,22.09
2018-09-06T09:35:03.297Z,22.29
2018-09-06T09:36:03.071Z,21.52
2018-09-06T09:37:03.277Z,21.14
2018-09-06T09:38:03.265Z,19.98
2018-09-06T09:39:02.990Z,19.5
2018-09-06T09:40:03.241Z,19.02
2018-09-06T09:41:02.969Z,19.31
2018-09-06T09:42:03.229Z,19.21
2018-09-06T09:43:03.212Z,18.73
2018-09-06T09:44:03.200Z,19.02
2018-09-06T09:45:03.191Z,20.56
2018-09-06T09:48:03.157Z,19.31
2018-09-06T09:49:03.150Z,20.37
2018-09-06T09:50:03.137Z,21.52
2018-09-06T09:51:03.127Z,21.91
2018-09-06T09:52:03.114Z,20.47
2018-09-06T09:53:03.108Z,20.56
2018-09-06T09:54:03.098Z,21.42
2018-09-06T09:55:03.082Z,22.19
2018-09-06T09:56:03.086Z,22.19
2018-09-06T09:57:02.841Z,20.56
2018-09-06T09:58:02.792Z,19.98
2018-09-06T09:59:03.041Z,19.02
2018-09-06T10:00:03.038Z,18.44
2018-09-06T10:01:03.019Z,19.21
2018-09-06T10:02:03.012Z,18.44
2018-09-06T10:03:03.000Z,19.12
2018-09-06T10:04:02.727Z,18.54
2018-09-06T10:05:02.714Z,18.16
2018-09-06T10:06:02.971Z,18.06
2018-09-06T10:07:02.959Z,18.63
2018-09-06T10:08:02.950Z,19.89
2018-09-06T10:09:02.939Z,20.56
2018-09-06T10:10:02.926Z,20.56
2018-09-06T10:11:02.660Z,20.56
2018-09-06T10:12:02.949Z,20.56
2018-09-06T10:13:02.642Z,20.65
2018-09-06T10:14:02.887Z,19.5
2018-09-06T10:15:02.629Z,18.93
2018-09-06T10:16:02.861Z,19.21
2018-09-06T10:17:02.851Z,19.4
2018-09-06T10:18:02.930Z,18.93
2018-09-06T10:19:02.833Z,19.31
2018-09-06T10:20:02.822Z,19.79
2018-09-06T10:21:02.809Z,20.27
2018-09-06T10:22:02.802Z,20.17
2018-09-06T10:23:02.529Z,19.5
2018-09-06T10:24:02.777Z,18.73
2018-09-06T10:25:02.508Z,17.29
2018-09-06T10:26:02.497Z,17.29
2018-09-06T10:27:02.685Z,15.47
2018-09-06T10:28:02.739Z,15.28
2018-09-06T10:29:02.522Z,15.18
2018-09-06T10:30:02.463Z,15.28
2018-09-06T10:31:02.709Z,15.47
2018-09-06T10:32:02.699Z,15.18
2018-09-06T10:33:02.688Z,15.66
2018-09-06T10:34:02.413Z,14.98
2018-09-06T10:35:02.666Z,15.75
2018-09-06T10:36:02.399Z,15.28
2018-09-06T10:37:02.644Z,15.28
2018-09-06T10:38:02.641Z,15.37
2018-09-06T10:39:02.621Z,15.08
2018-09-06T10:40:02.412Z,15.08
2018-09-06T10:41:02.335Z,15.18
2018-09-06T10:42:02.588Z,15.28
2018-09-06T10:43:02.576Z,15.08
2018-09-06T10:44:02.300Z,14.79
2018-09-06T10:45:02.289Z,14.22
2018-09-06T10:46:02.632Z,13.83
2018-09-06T10:47:02.535Z,14.51
2018-09-06T10:48:02.668Z,13.74
2018-09-06T10:49:02.512Z,13.74
2018-09-06T10:50:02.237Z,13.54
2018-09-06T10:51:02.241Z,13.26
2018-09-06T10:52:02.489Z,13.35
2018-09-06T10:53:02.472Z,12.87
2018-09-06T10:54:02.465Z,12.97
2018-09-06T10:55:02.454Z,12.97
2018-09-06T10:56:02.442Z,12.77
2018-09-06T10:57:02.429Z,12.87
2018-09-06T10:58:02.444Z,12.77
2018-09-06T10:59:02.405Z,12.59
2018-09-06T11:00:02.404Z,12.59
2018-09-06T11:01:02.395Z,12.49
2018-09-06T11:02:02.372Z,11.72
2018-09-06T11:03:02.361Z,11.53
2018-09-06T11:04:02.087Z,11.24
2018-09-06T11:05:02.077Z,11.15
2018-09-06T11:06:02.330Z,11.33
2018-09-06T11:07:02.369Z,11.15
2018-09-06T11:08:02.576Z,11.05
2018-09-06T11:09:02.299Z,10.95
2018-09-06T11:10:02.284Z,10.95
2018-09-06T11:11:02.287Z,11.05
2018-09-06T11:12:02.008Z,10.47
2018-09-06T11:13:01.990Z,10.28
2018-09-06T11:14:02.240Z,10.38
2018-09-06T11:15:01.977Z,10.57
2018-09-06T11:16:02.222Z,10.76
2018-09-06T11:17:01.946Z,10.47
2018-09-06T11:18:02.277Z,10.47
2018-09-06T11:19:02.191Z,10.38
2018-09-06T11:20:02.177Z,10.38
2018-09-06T11:21:01.963Z,10.95
2018-09-06T11:22:02.237Z,11.15
2018-09-06T11:23:02.153Z,11.43
2018-09-06T11:24:02.133Z,11.24
2018-09-06T11:25:01.860Z,11.62
2018-09-06T11:26:02.123Z,11.33
2018-09-06T11:27:01.840Z,11.05
2018-09-06T11:28:02.194Z,11.24
2018-09-06T11:29:02.079Z,11.15
2018-09-06T11:30:02.074Z,11.15
2018-09-06T11:31:02.069Z,11.24
2018-09-06T11:32:02.056Z,11.24
2018-09-06T11:33:02.042Z,11.62
2018-09-06T11:34:02.086Z,11.05
2018-09-06T11:35:02.053Z,11.33
2018-09-06T11:36:01.751Z,11.43
2018-09-06T11:37:01.994Z,10.85
2018-09-06T11:38:01.723Z,11.15
2018-09-06T11:39:01.979Z,10.76
2018-09-06T11:40:02.065Z,10.28
2018-09-06T11:41:01.695Z,10.38
2018-09-06T11:42:01.941Z,10.08
2018-09-06T11:43:01.667Z,9.89
2018-09-06T11:44:01.920Z,10.18
2018-09-06T11:45:01.971Z,9.99
2018-09-06T11:46:01.634Z,10.85
2018-09-06T11:47:01.968Z,11.04
2018-09-06T11:48:01.618Z,10.66
2018-09-06T11:49:01.866Z,10.66
2018-09-06T11:50:01.857Z,10.38
2018-09-06T11:51:01.856Z,10.28
2018-09-06T11:52:01.589Z,10.28
2018-09-06T11:53:01.828Z,9.99
2018-09-06T11:54:01.554Z,10.08
2018-09-06T11:55:01.807Z,9.99
2018-09-06T11:56:01.795Z,10.66
2018-09-06T11:57:01.523Z,10.47
2018-09-06T11:58:01.510Z,10.08
2018-09-06T11:59:01.759Z,10.18
2018-09-06T12:00:01.485Z,10.08
2018-09-06T12:01:01.738Z,9.89
2018-09-06T12:02:01.479Z,9.89
2018-09-06T12:03:01.718Z,10.08
2018-09-06T12:04:01.704Z,10.85
2018-09-06T12:05:01.699Z,10.76
2018-09-06T12:06:01.812Z,10.76
2018-09-06T12:07:01.674Z,10.18
2018-09-06T12:08:01.666Z,9.61
2018-09-06T12:09:01.682Z,9.51
2018-09-06T12:10:01.696Z,9.41
2018-09-06T12:11:01.634Z,9.51
2018-09-06T12:12:01.619Z,9.31
2018-09-06T12:13:01.350Z,9.31
2018-09-06T12:14:01.600Z,9.03
2018-09-06T12:15:01.590Z,9.12
2018-09-06T12:16:01.580Z,9.51
2018-09-06T12:17:01.302Z,9.51
2018-09-06T12:18:01.556Z,9.31
2018-09-06T12:19:01.544Z,9.61
2018-09-06T12:20:01.586Z,9.51
2018-09-06T12:21:01.524Z,9.7
2018-09-06T12:22:01.524Z,9.22
2018-09-06T12:23:01.507Z,9.31
2018-09-06T12:24:01.494Z,9.22
2018-09-06T12:25:01.480Z,8.74
2018-09-06T12:26:01.211Z,8.74
2018-09-06T12:27:01.406Z,8.84
2018-09-06T12:28:01.455Z,8.94
2018-09-06T12:29:01.436Z,8.94
2018-09-06T12:30:01.831Z,8.64
2018-09-06T12:31:01.420Z,8.74
2018-09-06T12:32:01.163Z,8.84
2018-09-06T12:33:01.492Z,8.94
2018-09-06T12:34:01.388Z,8.84
2018-09-06T12:35:01.372Z,8.74
2018-09-06T12:36:01.366Z,8.84
2018-09-06T12:37:01.355Z,8.64
2018-09-06T12:38:01.084Z,8.55
2018-09-06T12:39:01.330Z,8.55
2018-09-06T12:40:01.064Z,8.17
2018-09-06T12:41:01.311Z,8.64
2018-09-06T12:42:01.297Z,8.45
2018-09-06T12:43:01.285Z,8.07
2018-09-06T12:44:01.279Z,8.17
2018-09-06T12:45:01.003Z,8.46
2018-09-06T12:46:01.267Z,8.26
2018-09-06T12:47:01.249Z,8.45
2018-09-06T12:48:01.237Z,8.26
2018-09-06T12:49:01.226Z,8.65
2018-09-06T12:50:00.950Z,8.84
2018-09-06T12:51:01.408Z,8.94
2018-09-06T12:52:01.194Z,8.84
2018-09-06T12:53:01.183Z,8.65
2018-09-06T12:54:01.177Z,8.75
2018-09-06T12:55:01.165Z,8.75
2018-09-06T12:56:00.886Z,8.65
2018-09-06T12:57:00.879Z,9.03
2018-09-06T12:58:01.138Z,8.75